LEBL/BCN METAR and TAF weather

Enter ICAO airport designator
Station Type Date Time Source
LEBL METAR 2018/12/19 03:30 UTC NOAA

LEBL 190330Z 33004KT 9999 -RA FEW035 09/06 Q1019 NOSIG


Station Type Date Time Source
LEBL Decoded METAR 2018/12/19 03:30 UTC NOAA

Barcelona / Aeropuerto, Spain (LEBL) 41-17N 002-04E 6M
Dec 18, 2018 - 10:30 PM EST / 2018.12.19 0330 UTC
Wind: from the NNW (330 degrees) at 5 MPH (4 KT):0
Visibility: greater than 7 mile(s):0
Sky conditions: mostly clear
Weather: light rain
Temperature: 48 F (9 C)
Dew Point: 42 F (6 C)
Relative Humidity: 81%
Pressure (altimeter): 30.09 in. Hg (1019 hPa)
ob: LEBL 190330Z 33004KT 9999 -RA FEW035 09/06 Q1019 NOSIG
cycle: 3

Station Type Date Time Source
LEBL TAF 2018/12/18 18:27 UTC NOAA

TAF LEBL 181700Z 1818/1918 VRB03KT 9999 SCT025 TX15/1912Z TN08/1906Z
TEMPO 1818/1820 25008KT
BECMG 1900/1902 34008KT
BECMG 1909/1911 27010KT


Example: see airport list